Time;durP1;ratioP1;P1;durP2;ratioP2;P2;SDS_P1;SDS_P2;PMS_P1;PMS_P2;Temp;Humidity;BMP_temperature;BMP_pressure;BME280_temperature;BME280_humidity;BME280_pressure;Samples;Min_cycle;Max_cycle;Signal;HPM_P1;HPM_P2
2023/07/27 00:00:26;;;;;;;;;;;20.10;72.90;;;;;;4156273;28;19932;-51
2023/07/27 00:03:08;;;;;;;;;;;20.10;73.00;;;;;;4170935;28;19936;-52
2023/07/27 00:05:49;;;;;;;;;;;20.10;73.10;;;;;;4188507;28;19931;-51
2023/07/27 00:08:30;;;;;;;;;;;20.10;73.10;;;;;;4176214;28;19932;-49
2023/07/27 00:11:10;;;;;;;;;;;20.10;73.20;;;;;;4173648;28;19931;-52
2023/07/27 00:13:51;;;;;;;;;;;20.10;73.20;;;;;;4169971;28;19936;-51
2023/07/27 00:16:32;;;;;;;;;;;20.10;73.30;;;;;;4171657;28;19931;-54
2023/07/27 00:19:14;;;;;;;;;;;20.10;73.40;;;;;;4170022;28;19931;-52
2023/07/27 00:21:55;;;;;;;;;;;20.10;73.40;;;;;;4125542;28;19949;-56
2023/07/27 00:24:36;;;;;;;;;;;20.00;73.30;;;;;;4146111;28;19932;-54
2023/07/27 00:27:17;;;;;;;;;;;20.00;73.20;;;;;;4172477;28;20343;-54
2023/07/27 00:29:59;;;;;;;;;;;20.00;73.30;;;;;;4140042;28;19956;-54
2023/07/27 00:32:40;;;;;;;;;;;20.00;73.30;;;;;;4136480;28;20007;-52
2023/07/27 00:35:22;;;;;;;;;;;20.00;73.30;;;;;;4155857;28;20523;-53
2023/07/27 00:38:02;;;;;;;;;;;20.00;74.30;;;;;;4135450;28;19949;-51
2023/07/27 00:40:47;;;;;;;;;;;20.00;73.40;;;;;;4155087;28;19936;-51
2023/07/27 00:43:27;;;;;;;;;;;20.00;73.40;;;;;;4167576;28;19931;-53
2023/07/27 00:46:09;;;;;;;;;;;20.00;73.50;;;;;;4158758;28;20260;-51
2023/07/27 00:48:50;;;;;;;;;;;20.00;73.60;;;;;;4170738;28;20391;-53
2023/07/27 00:51:35;;;;;;;;;;;20.00;73.60;;;;;;4171750;28;20022;-51
2023/07/27 00:54:16;;;;;;;;;;;20.00;73.60;;;;;;4159193;28;20291;-52
2023/07/27 00:56:57;;;;;;;;;;;20.00;73.80;;;;;;4158876;28;20322;-49
2023/07/27 00:59:39;;;;;;;;;;;19.90;73.70;;;;;;4169467;28;19936;-51
2023/07/27 01:02:20;;;;;;;;;;;19.90;73.70;;;;;;4175271;28;20402;-53
2023/07/27 01:05:01;;;;;;;;;;;19.90;73.80;;;;;;4157091;28;19936;-53
2023/07/27 01:07:44;;;;;;;;;;;19.90;73.90;;;;;;4188031;28;20424;-49
2023/07/27 01:10:29;;;;;;;;;;;19.90;73.90;;;;;;4187675;28;19935;-50
2023/07/27 01:13:13;;;;;;;;;;;19.90;73.90;;;;;;4187977;28;19931;-51
2023/07/27 01:15:57;;;;;;;;;;;19.90;73.90;;;;;;4165686;28;19978;-49
2023/07/27 01:18:41;;;;;;;;;;;19.90;74.00;;;;;;4170325;28;19997;-52
2023/07/27 01:21:25;;;;;;;;;;;19.90;74.00;;;;;;4162426;28;19936;-51
2023/07/27 01:24:18;;;;;;;;;;;19.90;74.20;;;;;;4170722;28;19975;-54
2023/07/27 01:27:11;;;;;;;;;;;19.90;74.20;;;;;;4157931;28;20021;-54
2023/07/27 01:30:00;;;;;;;;;;;19.80;74.10;;;;;;4170544;28;20059;-52
2023/07/27 01:32:43;;;;;;;;;;;19.80;74.20;;;;;;4161872;28;19935;-54
2023/07/27 01:35:25;;;;;;;;;;;19.80;74.30;;;;;;4169847;28;19990;-53
2023/07/27 01:38:06;;;;;;;;;;;19.80;74.30;;;;;;4147329;28;19970;-54
2023/07/27 01:40:48;;;;;;;;;;;19.80;75.30;;;;;;4155114;28;19936;-53
2023/07/27 01:43:29;;;;;;;;;;;19.80;74.50;;;;;;4186827;28;20608;-51
2023/07/27 01:46:11;;;;;;;;;;;19.80;74.60;;;;;;4187255;28;19939;-51
2023/07/27 01:48:55;;;;;;;;;;;19.80;74.60;;;;;;4185390;28;19931;-53
2023/07/27 01:51:37;;;;;;;;;;;19.80;74.60;;;;;;4165388;28;19937;-50
2023/07/27 01:54:19;;;;;;;;;;;19.80;74.70;;;;;;4158358;28;20014;-51
2023/07/27 01:57:01;;;;;;;;;;;19.80;74.70;;;;;;4169089;28;19931;-53
2023/07/27 01:59:42;;;;;;;;;;;19.80;74.70;;;;;;4178421;28;19931;-52
2023/07/27 02:02:23;;;;;;;;;;;19.80;74.70;;;;;;4151897;28;19935;-49
2023/07/27 02:05:06;;;;;;;;;;;19.80;74.70;;;;;;4171563;28;19936;-51
2023/07/27 02:07:47;;;;;;;;;;;19.80;74.70;;;;;;4146483;28;20292;-50
2023/07/27 02:10:29;;;;;;;;;;;19.80;75.60;;;;;;4145670;28;20066;-49
2023/07/27 02:13:12;;;;;;;;;;;19.70;74.60;;;;;;4145402;28;19948;-48
2023/07/27 02:15:56;;;;;;;;;;;19.80;74.60;;;;;;4160768;28;19963;-53
2023/07/27 02:18:38;;;;;;;;;;;19.70;74.50;;;;;;4190181;28;19931;-52
2023/07/27 02:21:21;;;;;;;;;;;19.70;74.50;;;;;;4178047;28;19932;-51
2023/07/27 02:24:03;;;;;;;;;;;19.70;75.40;;;;;;4177760;28;19935;-47
2023/07/27 02:26:45;;;;;;;;;;;19.70;74.50;;;;;;4178102;28;19936;-48
2023/07/27 02:29:25;;;;;;;;;;;19.70;74.60;;;;;;4190278;28;19936;-48
2023/07/27 02:32:07;;;;;;;;;;;19.70;75.50;;;;;;4177003;28;19932;-48
2023/07/27 02:34:47;;;;;;;;;;;19.70;74.60;;;;;;4160432;28;19991;-49
2023/07/27 02:37:30;;;;;;;;;;;19.70;74.60;;;;;;4160856;28;19936;-51
2023/07/27 02:40:11;;;;;;;;;;;19.70;75.40;;;;;;4172004;28;19931;-48
2023/07/27 02:42:52;;;;;;;;;;;19.70;74.60;;;;;;4160702;28;20078;-48
2023/07/27 02:45:33;;;;;;;;;;;19.70;74.60;;;;;;4157038;28;19948;-47
2023/07/27 02:48:14;;;;;;;;;;;19.70;74.60;;;;;;4146439;28;20081;-46
2023/07/27 02:50:55;;;;;;;;;;;19.70;74.50;;;;;;4159749;28;19935;-49
2023/07/27 02:53:37;;;;;;;;;;;19.70;74.50;;;;;;4149523;28;19932;-48
2023/07/27 02:56:27;;;;;;;;;;;19.70;74.60;;;;;;4161444;28;19932;-51
2023/07/27 02:59:07;;;;;;;;;;;19.60;74.60;;;;;;4161166;28;19936;-46
2023/07/27 03:01:54;;;;;;;;;;;19.60;74.60;;;;;;4145575;28;19932;-48
2023/07/27 03:04:40;;;;;;;;;;;19.60;74.60;;;;;;4160929;28;20406;-48
2023/07/27 03:07:23;;;;;;;;;;;19.60;74.70;;;;;;4159905;28;19935;-48
2023/07/27 03:10:05;;;;;;;;;;;19.60;74.80;;;;;;4172122;28;19963;-46
2023/07/27 03:12:49;;;;;;;;;;;19.60;74.80;;;;;;4161412;28;19936;-47
2023/07/27 03:15:30;;;;;;;;;;;19.60;74.80;;;;;;4172840;28;20511;-50
2023/07/27 03:18:10;;;;;;;;;;;19.60;74.90;;;;;;4136698;28;20007;-48
2023/07/27 03:20:51;;;;;;;;;;;19.60;75.00;;;;;;4177165;28;19973;-50
2023/07/27 03:23:33;;;;;;;;;;;19.60;75.00;;;;;;4156741;28;20026;-54
2023/07/27 03:26:15;;;;;;;;;;;19.60;75.00;;;;;;4144218;28;19932;-52
2023/07/27 03:28:56;;;;;;;;;;;19.60;75.00;;;;;;4154930;28;19932;-52
2023/07/27 03:31:38;;;;;;;;;;;19.60;75.00;;;;;;4177168;28;19936;-52
2023/07/27 03:34:19;;;;;;;;;;;19.60;75.10;;;;;;4188687;28;19932;-53
2023/07/27 03:37:01;;;;;;;;;;;19.60;75.10;;;;;;4157726;28;19936;-51
2023/07/27 03:39:42;;;;;;;;;;;19.60;75.20;;;;;;4168804;28;20436;-55
2023/07/27 03:42:24;;;;;;;;;;;19.60;75.30;;;;;;4175842;28;19932;-53
2023/07/27 03:45:05;;;;;;;;;;;19.60;75.30;;;;;;4188361;28;19939;-53
2023/07/27 03:47:46;;;;;;;;;;;19.50;75.20;;;;;;4180118;28;19992;-52
2023/07/27 03:50:27;;;;;;;;;;;19.60;75.30;;;;;;4156259;28;19932;-51
2023/07/27 03:53:08;;;;;;;;;;;19.50;75.30;;;;;;4168837;28;19935;-54
2023/07/27 03:55:49;;;;;;;;;;;19.60;75.40;;;;;;4188592;28;20005;-48
2023/07/27 03:58:32;;;;;;;;;;;19.50;75.30;;;;;;4142193;28;19932;-51
2023/07/27 04:01:12;;;;;;;;;;;19.50;75.40;;;;;;4149351;28;20502;-52
2023/07/27 04:03:53;;;;;;;;;;;19.60;75.50;;;;;;4143822;28;20283;-50
2023/07/27 04:06:35;;;;;;;;;;;19.60;75.50;;;;;;4157464;28;19979;-48
2023/07/27 04:09:16;;;;;;;;;;;19.50;75.40;;;;;;4147406;28;20472;-49
2023/07/27 04:11:58;;;;;;;;;;;19.50;75.50;;;;;;4188756;28;19936;-49
2023/07/27 04:14:40;;;;;;;;;;;19.50;75.50;;;;;;4178494;28;19935;-53
2023/07/27 04:17:21;;;;;;;;;;;19.50;75.50;;;;;;4155093;28;19938;-54
2023/07/27 04:20:01;;;;;;;;;;;19.50;75.60;;;;;;4155140;28;19936;-51
2023/07/27 04:22:42;;;;;;;;;;;19.50;75.60;;;;;;4166204;28;20326;-55
2023/07/27 04:25:23;;;;;;;;;;;19.50;76.50;;;;;;4187187;28;20402;-52
2023/07/27 04:28:04;;;;;;;;;;;19.50;75.60;;;;;;4176424;28;19935;-52
2023/07/27 04:30:45;;;;;;;;;;;19.50;75.60;;;;;;4174397;28;19932;-54
2023/07/27 04:33:26;;;;;;;;;;;19.50;75.70;;;;;;4160774;28;19932;-51
2023/07/27 04:36:07;;;;;;;;;;;19.50;75.70;;;;;;4158946;28;19959;-54
2023/07/27 04:38:47;;;;;;;;;;;19.50;75.70;;;;;;4168679;28;19937;-52
2023/07/27 04:41:28;;;;;;;;;;;19.50;75.80;;;;;;4159622;28;19935;-55
2023/07/27 04:44:10;;;;;;;;;;;19.50;75.80;;;;;;4154644;28;19937;-55
2023/07/27 04:46:52;;;;;;;;;;;19.50;75.80;;;;;;4170366;28;19932;-56
2023/07/27 04:49:33;;;;;;;;;;;19.50;75.90;;;;;;4170064;28;20066;-56
2023/07/27 04:52:13;;;;;;;;;;;19.50;75.90;;;;;;4158144;28;19948;-56
2023/07/27 04:54:54;;;;;;;;;;;19.50;76.20;;;;;;4171138;28;20062;-53
2023/07/27 04:57:35;;;;;;;;;;;19.50;76.30;;;;;;4154606;28;19944;-55
2023/07/27 05:00:16;;;;;;;;;;;19.50;77.20;;;;;;4153808;28;19932;-55
2023/07/27 05:02:59;;;;;;;;;;;19.50;76.40;;;;;;4160386;28;19952;-55
2023/07/27 05:05:42;;;;;;;;;;;19.50;76.40;;;;;;4141652;28;19932;-56
2023/07/27 05:08:23;;;;;;;;;;;19.50;76.50;;;;;;4153992;28;20383;-54
2023/07/27 05:11:05;;;;;;;;;;;19.50;76.50;;;;;;4154461;28;19936;-56
2023/07/27 05:13:47;;;;;;;;;;;19.50;76.60;;;;;;4154748;28;19936;-57
2023/07/27 05:16:28;;;;;;;;;;;19.50;76.70;;;;;;4142151;28;19936;-55
2023/07/27 05:19:10;;;;;;;;;;;19.40;76.80;;;;;;4154904;28;19936;-55
2023/07/27 05:21:50;;;;;;;;;;;19.40;76.80;;;;;;4155048;28;19971;-57
2023/07/27 05:24:31;;;;;;;;;;;19.40;76.90;;;;;;4155045;28;19951;-56
2023/07/27 05:27:12;;;;;;;;;;;19.40;76.90;;;;;;4157010;28;19947;-55
2023/07/27 05:29:53;;;;;;;;;;;19.40;77.00;;;;;;4187910;28;19935;-56
2023/07/27 05:32:33;;;;;;;;;;;19.40;77.10;;;;;;4177726;28;20022;-53
2023/07/27 05:35:16;;;;;;;;;;;19.40;77.20;;;;;;4170941;28;20654;-55
2023/07/27 05:37:57;;;;;;;;;;;19.40;77.30;;;;;;4171118;28;19932;-53
2023/07/27 05:40:38;;;;;;;;;;;19.40;77.40;;;;;;4170665;28;19979;-53
2023/07/27 05:43:19;;;;;;;;;;;19.40;77.40;;;;;;4171696;28;20022;-53
2023/07/27 05:45:59;;;;;;;;;;;19.40;77.50;;;;;;4170935;28;19931;-53
2023/07/27 05:48:40;;;;;;;;;;;19.40;77.50;;;;;;4165867;28;20025;-54
2023/07/27 05:51:22;;;;;;;;;;;19.40;77.70;;;;;;4154437;28;19935;-55
2023/07/27 05:54:03;;;;;;;;;;;19.40;78.30;;;;;;4153721;28;19935;-52
2023/07/27 05:56:45;;;;;;;;;;;19.40;79.60;;;;;;4154311;28;19932;-51
2023/07/27 05:59:26;;;;;;;;;;;19.50;81.30;;;;;;4154162;28;20347;-54
2023/07/27 06:02:06;;;;;;;;;;;19.40;82.40;;;;;;4165123;28;19987;-50
2023/07/27 06:04:48;;;;;;;;;;;19.40;82.90;;;;;;4169177;28;20396;-54
2023/07/27 06:07:30;;;;;;;;;;;19.50;82.90;;;;;;4155788;28;19974;-54
2023/07/27 06:10:12;;;;;;;;;;;19.50;82.20;;;;;;4136527;28;19938;-53
2023/07/27 06:12:53;;;;;;;;;;;19.50;81.70;;;;;;4142649;28;20408;-51
2023/07/27 06:15:34;;;;;;;;;;;19.50;81.30;;;;;;4147494;28;20004;-49
2023/07/27 06:18:14;;;;;;;;;;;19.40;81.00;;;;;;4155378;28;19932;-49
2023/07/27 06:20:55;;;;;;;;;;;19.40;80.70;;;;;;4153978;28;19991;-51
2023/07/27 06:23:37;;;;;;;;;;;19.40;80.60;;;;;;4171005;28;19932;-53
2023/07/27 06:26:18;;;;;;;;;;;19.40;80.70;;;;;;4170115;28;19932;-52
2023/07/27 06:28:59;;;;;;;;;;;19.50;80.70;;;;;;4169083;28;19931;-52
2023/07/27 06:31:39;;;;;;;;;;;19.50;80.60;;;;;;4169635;28;20754;-52
2023/07/27 06:34:21;;;;;;;;;;;19.40;80.40;;;;;;4149017;28;19932;-45
2023/07/27 06:37:02;;;;;;;;;;;19.40;80.30;;;;;;4170775;28;19940;-48
2023/07/27 06:39:43;;;;;;;;;;;19.40;80.30;;;;;;4169613;28;19943;-45
2023/07/27 06:42:25;;;;;;;;;;;19.40;80.30;;;;;;4152967;28;19951;-46
2023/07/27 06:45:05;;;;;;;;;;;19.40;80.50;;;;;;4168881;28;20291;-45
2023/07/27 06:47:46;;;;;;;;;;;19.40;80.60;;;;;;4152307;28;20517;-46
2023/07/27 06:50:27;;;;;;;;;;;19.50;80.70;;;;;;4159754;28;19936;-47
2023/07/27 06:53:08;;;;;;;;;;;19.50;80.70;;;;;;4170023;28;20062;-48
2023/07/27 06:55:50;;;;;;;;;;;19.50;80.70;;;;;;4170033;28;19936;-46
2023/07/27 06:58:31;;;;;;;;;;;19.50;80.60;;;;;;4169692;28;19932;-48
2023/07/27 07:01:11;;;;;;;;;;;19.50;80.60;;;;;;4170528;28;20079;-52
2023/07/27 07:03:52;;;;;;;;;;;19.50;80.60;;;;;;4155477;28;19931;-52
2023/07/27 07:06:33;;;;;;;;;;;19.50;80.70;;;;;;4170292;28;19940;-51
2023/07/27 07:09:14;;;;;;;;;;;19.50;80.70;;;;;;4171112;28;19935;-51
2023/07/27 07:11:57;;;;;;;;;;;19.50;80.80;;;;;;4161463;28;19971;-52
2023/07/27 07:14:37;;;;;;;;;;;19.50;80.90;;;;;;4171103;28;20469;-49
2023/07/27 07:17:18;;;;;;;;;;;19.50;80.90;;;;;;4153314;28;19969;-51
2023/07/27 07:19:59;;;;;;;;;;;19.50;81.00;;;;;;4158799;28;19939;-49
2023/07/27 07:22:40;;;;;;;;;;;19.50;81.10;;;;;;4169468;28;19939;-51
2023/07/27 07:25:21;;;;;;;;;;;19.50;81.10;;;;;;4171001;28;19936;-54
2023/07/27 07:28:04;;;;;;;;;;;19.50;81.10;;;;;;4168194;28;19962;-48
2023/07/27 07:30:45;;;;;;;;;;;19.50;81.10;;;;;;4170208;28;20442;-52
2023/07/27 07:33:25;;;;;;;;;;;19.50;81.10;;;;;;4168499;28;20070;-49
2023/07/27 07:36:06;;;;;;;;;;;19.50;81.10;;;;;;4170277;28;19936;-50
2023/07/27 07:38:47;;;;;;;;;;;19.50;81.20;;;;;;4168657;28;20018;-54
2023/07/27 07:41:28;;;;;;;;;;;19.50;82.10;;;;;;4169942;28;19974;-52
2023/07/27 07:44:10;;;;;;;;;;;19.50;81.30;;;;;;4156361;28;19935;-51
2023/07/27 07:46:51;;;;;;;;;;;19.50;81.30;;;;;;4158307;28;19936;-50
2023/07/27 07:49:35;;;;;;;;;;;19.50;81.40;;;;;;4168831;28;20311;-52
2023/07/27 07:52:15;;;;;;;;;;;19.50;81.50;;;;;;4156543;28;20026;-49
2023/07/27 07:55:00;;;;;;;;;;;19.50;81.50;;;;;;4169456;28;20307;-53
2023/07/27 07:57:41;;;;;;;;;;;19.50;81.70;;;;;;4169203;28;19943;-52
2023/07/27 08:00:23;;;;;;;;;;;19.50;81.70;;;;;;4142523;28;19932;-52
2023/07/27 08:03:05;;;;;;;;;;;19.50;81.60;;;;;;4163733;28;20383;-50
2023/07/27 08:05:45;;;;;;;;;;;19.50;81.70;;;;;;4168644;28;20395;-48
2023/07/27 08:08:26;;;;;;;;;;;19.50;81.70;;;;;;4169698;28;19971;-52
2023/07/27 08:11:07;;;;;;;;;;;19.50;82.60;;;;;;4168548;28;19940;-55
2023/07/27 08:13:52;;;;;;;;;;;19.50;81.70;;;;;;4168962;28;19932;-54
2023/07/27 08:16:37;;;;;;;;;;;19.50;81.80;;;;;;4169139;28;20083;-55
2023/07/27 08:19:19;;;;;;;;;;;19.50;82.20;;;;;;4166753;28;19982;-49
2023/07/27 08:21:59;;;;;;;;;;;19.50;82.20;;;;;;4167835;28;19943;-55
2023/07/27 08:24:40;;;;;;;;;;;19.50;82.30;;;;;;4169012;28;19935;-52
2023/07/27 08:27:21;;;;;;;;;;;19.50;82.30;;;;;;4180112;28;19934;-50
2023/07/27 08:30:03;;;;;;;;;;;19.50;82.30;;;;;;4169869;28;19977;-53
2023/07/27 08:32:47;;;;;;;;;;;19.50;82.50;;;;;;4156633;28;19979;-53
2023/07/27 08:35:28;;;;;;;;;;;19.50;82.60;;;;;;4157298;28;19936;-49
2023/07/27 08:38:09;;;;;;;;;;;19.50;82.50;;;;;;4166787;28;19936;-49
2023/07/27 08:40:53;;;;;;;;;;;19.50;82.60;;;;;;4169226;28;19989;-53
2023/07/27 08:43:34;;;;;;;;;;;19.50;82.60;;;;;;4169085;28;19967;-55
2023/07/27 08:46:15;;;;;;;;;;;19.50;82.60;;;;;;4162797;28;20062;-53
2023/07/27 08:48:57;;;;;;;;;;;19.50;82.90;;;;;;4154935;28;20059;-53
2023/07/27 08:51:40;;;;;;;;;;;19.50;82.90;;;;;;4167760;28;20013;-54
2023/07/27 08:54:21;;;;;;;;;;;19.50;83.00;;;;;;4166415;28;19932;-54
2023/07/27 08:57:02;;;;;;;;;;;19.50;83.00;;;;;;4168466;28;20267;-54
2023/07/27 08:59:43;;;;;;;;;;;19.50;83.00;;;;;;4155110;28;19935;-53
2023/07/27 09:02:24;;;;;;;;;;;19.50;83.00;;;;;;4150989;28;20020;-53
2023/07/27 09:05:06;;;;;;;;;;;19.50;83.30;;;;;;4166323;28;19935;-55
2023/07/27 09:07:49;;;;;;;;;;;19.60;83.50;;;;;;4153462;28;20795;-55
2023/07/27 09:10:29;;;;;;;;;;;19.60;83.40;;;;;;4168527;28;19979;-56
2023/07/27 09:13:10;;;;;;;;;;;19.50;83.20;;;;;;4157627;28;19932;-53
2023/07/27 09:15:52;;;;;;;;;;;19.60;83.30;;;;;;4156433;28;19980;-56
2023/07/27 09:18:35;;;;;;;;;;;19.60;83.30;;;;;;4168657;28;20375;-52
2023/07/27 09:21:18;;;;;;;;;;;19.60;83.40;;;;;;4151622;28;19948;-53
2023/07/27 09:23:59;;;;;;;;;;;19.60;83.50;;;;;;4155550;28;19932;-55
2023/07/27 09:26:46;;;;;;;;;;;19.60;83.60;;;;;;4153212;28;20081;-53
2023/07/27 09:29:27;;;;;;;;;;;19.60;83.90;;;;;;4153840;28;19939;-52
2023/07/27 09:32:10;;;;;;;;;;;19.60;84.00;;;;;;4152606;28;19975;-54
2023/07/27 09:34:54;;;;;;;;;;;19.60;84.30;;;;;;4167559;28;19956;-55
2023/07/27 09:37:36;;;;;;;;;;;19.70;84.50;;;;;;4168316;28;19986;-56
2023/07/27 09:40:19;;;;;;;;;;;19.70;84.60;;;;;;4168908;28;20284;-53
2023/07/27 09:43:05;;;;;;;;;;;19.70;84.50;;;;;;4168535;28;20021;-53
2023/07/27 09:45:46;;;;;;;;;;;19.70;84.30;;;;;;4168436;28;19932;-56
2023/07/27 09:48:28;;;;;;;;;;;19.70;84.30;;;;;;4167971;28;19936;-55
2023/07/27 09:51:10;;;;;;;;;;;19.70;84.60;;;;;;4167864;28;19939;-55
2023/07/27 09:53:53;;;;;;;;;;;19.70;84.60;;;;;;4167223;28;19936;-56
2023/07/27 09:56:34;;;;;;;;;;;19.70;84.50;;;;;;4155837;28;19936;-55
2023/07/27 09:59:15;;;;;;;;;;;19.80;85.60;;;;;;4167911;28;19986;-52
2023/07/27 10:01:56;;;;;;;;;;;19.80;85.00;;;;;;4155856;28;19936;-52
2023/07/27 10:04:36;;;;;;;;;;;19.80;84.90;;;;;;4168120;28;20395;-55
2023/07/27 10:07:18;;;;;;;;;;;19.80;84.90;;;;;;4160813;28;19978;-54
2023/07/27 10:10:18;;;;;;;;;;;19.80;85.00;;;;;;4152943;28;19984;-56
2023/07/27 10:13:05;;;;;;;;;;;19.80;85.20;;;;;;4151634;28;20384;-54
2023/07/27 10:15:50;;;;;;;;;;;19.80;85.30;;;;;;4152377;28;19932;-55
2023/07/27 10:18:39;;;;;;;;;;;19.80;85.30;;;;;;4167921;28;19936;-53
2023/07/27 10:21:24;;;;;;;;;;;19.80;85.40;;;;;;4171170;28;19932;-56
2023/07/27 10:24:07;;;;;;;;;;;19.80;85.60;;;;;;4154950;28;19937;-55
2023/07/27 10:26:52;;;;;;;;;;;19.80;85.80;;;;;;4164135;28;19932;-52
2023/07/27 10:29:35;;;;;;;;;;;19.80;85.80;;;;;;4170943;28;20051;-56
2023/07/27 10:32:16;;;;;;;;;;;19.80;85.90;;;;;;4170048;28;19932;-55
2023/07/27 10:35:06;;;;;;;;;;;19.80;86.10;;;;;;4167672;28;19932;-56
2023/07/27 10:37:52;;;;;;;;;;;19.90;86.40;;;;;;4170021;28;20413;-55
2023/07/27 10:40:35;;;;;;;;;;;19.90;86.60;;;;;;4170582;28;19936;-56
2023/07/27 10:43:16;;;;;;;;;;;19.90;87.00;;;;;;4171126;28;20026;-55
2023/07/27 10:46:01;;;;;;;;;;;19.90;87.60;;;;;;4148918;28;20033;-53
2023/07/27 10:48:56;;;;;;;;;;;19.90;88.00;;;;;;4170418;28;20107;-54
2023/07/27 10:51:38;;;;;;;;;;;19.90;88.50;;;;;;4152958;28;20070;-55
2023/07/27 10:54:19;;;;;;;;;;;20.00;88.70;;;;;;4155002;28;19933;-54
2023/07/27 10:57:00;;;;;;;;;;;20.00;88.40;;;;;;4159694;28;20403;-55
2023/07/27 10:59:41;;;;;;;;;;;19.90;88.00;;;;;;4162053;28;19936;-54
2023/07/27 11:02:24;;;;;;;;;;;20.00;87.90;;;;;;4169398;28;19939;-56
2023/07/27 11:05:07;;;;;;;;;;;19.90;87.70;;;;;;4168426;28;20081;-54
2023/07/27 11:07:48;;;;;;;;;;;19.90;87.70;;;;;;4169777;28;19971;-54
2023/07/27 11:10:30;;;;;;;;;;;19.90;87.60;;;;;;4153605;28;20430;-53
2023/07/27 11:13:10;;;;;;;;;;;19.90;87.50;;;;;;4158149;28;20449;-55
2023/07/27 11:15:55;;;;;;;;;;;19.90;87.50;;;;;;4170250;28;20440;-51
2023/07/27 11:18:38;;;;;;;;;;;19.90;87.50;;;;;;4168629;28;19947;-54
2023/07/27 11:21:19;;;;;;;;;;;19.90;87.40;;;;;;4169142;28;20608;-55
2023/07/27 11:24:03;;;;;;;;;;;19.90;87.50;;;;;;4157809;28;20002;-55
2023/07/27 11:26:44;;;;;;;;;;;19.90;88.30;;;;;;4170002;28;19979;-51
2023/07/27 11:29:26;;;;;;;;;;;19.90;87.40;;;;;;4148942;28;19995;-55
2023/07/27 11:32:09;;;;;;;;;;;19.90;87.40;;;;;;4168220;28;19936;-55
2023/07/27 11:34:54;;;;;;;;;;;19.90;87.40;;;;;;4160075;28;19939;-53
2023/07/27 11:37:35;;;;;;;;;;;19.90;87.40;;;;;;4162096;28;19939;-56
2023/07/27 11:40:18;;;;;;;;;;;19.90;87.50;;;;;;4175228;28;20292;-54
2023/07/27 11:43:03;;;;;;;;;;;19.90;87.50;;;;;;4169995;28;19932;-55
2023/07/27 11:45:44;;;;;;;;;;;19.90;87.60;;;;;;4170325;28;20318;-56
2023/07/27 11:48:27;;;;;;;;;;;19.90;87.60;;;;;;4169945;28;19931;-56
2023/07/27 11:51:10;;;;;;;;;;;19.90;87.50;;;;;;4169280;28;19939;-54
2023/07/27 11:53:52;;;;;;;;;;;19.90;87.50;;;;;;4127496;28;19932;-55
2023/07/27 11:56:33;;;;;;;;;;;19.90;87.60;;;;;;4158199;28;20364;-57
2023/07/27 11:59:15;;;;;;;;;;;19.90;87.80;;;;;;4161481;28;19948;-55
2023/07/27 12:01:56;;;;;;;;;;;19.90;88.00;;;;;;4169852;28;19936;-55
2023/07/27 12:04:37;;;;;;;;;;;19.90;88.00;;;;;;4169409;28;19936;-57
2023/07/27 12:07:20;;;;;;;;;;;19.90;88.00;;;;;;4169588;28;20071;-57
2023/07/27 12:10:14;;;;;;;;;;;19.90;88.10;;;;;;4161833;28;19940;-55
2023/07/27 12:12:57;;;;;;;;;;;19.90;88.10;;;;;;4158756;28;19940;-54
2023/07/27 12:15:59;;;;;;;;;;;20.00;88.10;;;;;;4167797;28;19940;-55
2023/07/27 12:18:45;;;;;;;;;;;20.00;88.10;;;;;;4152879;28;19936;-55
2023/07/27 12:21:29;;;;;;;;;;;20.00;88.20;;;;;;4173871;28;20049;-57
2023/07/27 12:24:11;;;;;;;;;;;19.90;88.10;;;;;;4168261;28;20455;-56
2023/07/27 12:26:59;;;;;;;;;;;20.00;88.20;;;;;;4167689;28;19971;-55
2023/07/27 12:29:42;;;;;;;;;;;20.00;88.30;;;;;;4168645;28;20279;-56
2023/07/27 12:32:23;;;;;;;;;;;20.00;88.30;;;;;;4153500;28;20383;-55
2023/07/27 12:35:04;;;;;;;;;;;20.00;88.30;;;;;;4168099;28;20315;-57
2023/07/27 12:37:48;;;;;;;;;;;20.00;88.30;;;;;;4155414;28;19932;-56
2023/07/27 12:40:30;;;;;;;;;;;20.00;88.20;;;;;;4157423;28;19932;-56
2023/07/27 12:43:14;;;;;;;;;;;20.00;88.20;;;;;;4154013;28;19982;-56
2023/07/27 12:45:55;;;;;;;;;;;20.00;88.20;;;;;;4168000;28;19940;-56
2023/07/27 12:48:35;;;;;;;;;;;20.00;88.10;;;;;;4131745;28;19932;-55
2023/07/27 12:51:16;;;;;;;;;;;20.00;88.10;;;;;;4156062;28;19936;-56
2023/07/27 12:53:57;;;;;;;;;;;20.00;89.10;;;;;;4153188;28;20152;-55
2023/07/27 12:56:40;;;;;;;;;;;20.00;88.40;;;;;;4153402;28;19935;-57
2023/07/27 12:59:22;;;;;;;;;;;20.00;88.30;;;;;;4148505;28;19951;-56
2023/07/27 13:02:03;;;;;;;;;;;20.00;89.20;;;;;;4152474;28;19936;-56
2023/07/27 13:04:43;;;;;;;;;;;20.10;88.50;;;;;;4149918;28;19986;-55
2023/07/27 13:07:25;;;;;;;;;;;20.10;88.80;;;;;;4138428;28;19936;-55
2023/07/27 13:10:06;;;;;;;;;;;20.10;89.00;;;;;;4151499;28;20422;-54
2023/07/27 13:12:48;;;;;;;;;;;20.10;89.20;;;;;;4141477;28;20451;-54
2023/07/27 13:15:29;;;;;;;;;;;20.10;89.10;;;;;;4116408;28;20003;-57
2023/07/27 13:18:10;;;;;;;;;;;20.10;89.00;;;;;;4147678;28;19936;-57
2023/07/27 13:20:53;;;;;;;;;;;20.10;89.10;;;;;;4152884;28;20407;-53
2023/07/27 13:23:33;;;;;;;;;;;20.10;89.40;;;;;;4153047;28;20367;-55
2023/07/27 13:26:14;;;;;;;;;;;20.20;89.70;;;;;;4137833;28;20274;-56
2023/07/27 13:28:57;;;;;;;;;;;20.20;89.80;;;;;;4139828;28;19932;-57
2023/07/27 13:31:37;;;;;;;;;;;20.20;89.90;;;;;;4161072;28;19949;-55
2023/07/27 13:34:20;;;;;;;;;;;20.20;90.00;;;;;;4152593;28;19951;-55
2023/07/27 13:37:03;;;;;;;;;;;20.20;90.20;;;;;;4151416;28;20284;-56
2023/07/27 13:39:44;;;;;;;;;;;20.20;90.20;;;;;;4141754;28;19982;-56
2023/07/27 13:42:25;;;;;;;;;;;20.20;90.10;;;;;;4142928;28;20285;-57
2023/07/27 13:45:09;;;;;;;;;;;20.30;90.00;;;;;;4139471;28;19940;-56
2023/07/27 13:47:53;;;;;;;;;;;20.30;90.00;;;;;;4150792;28;20411;-55
2023/07/27 13:50:47;;;;;;;;;;;20.30;90.20;;;;;;4118527;28;19971;-55
2023/07/27 13:53:28;;;;;;;;;;;20.30;90.40;;;;;;4152201;28;19932;-55
2023/07/27 13:56:09;;;;;;;;;;;20.30;90.80;;;;;;4154168;28;19932;-55
2023/07/27 13:58:50;;;;;;;;;;;20.30;90.40;;;;;;4156480;28;20280;-55
2023/07/27 14:01:33;;;;;;;;;;;20.30;90.50;;;;;;4158056;28;19936;-56
2023/07/27 14:04:14;;;;;;;;;;;20.30;90.60;;;;;;4157950;28;19936;-55
2023/07/27 14:06:56;;;;;;;;;;;20.30;90.70;;;;;;4155460;28;20414;-56
2023/07/27 14:09:37;;;;;;;;;;;20.30;90.80;;;;;;4174021;28;20018;-55
2023/07/27 14:12:17;;;;;;;;;;;20.40;90.80;;;;;;4172251;28;20385;-55
2023/07/27 14:14:59;;;;;;;;;;;20.40;90.70;;;;;;4152047;28;19933;-56
2023/07/27 14:17:42;;;;;;;;;;;20.40;90.60;;;;;;4156224;28;20081;-56
2023/07/27 14:20:24;;;;;;;;;;;20.40;90.40;;;;;;4146813;28;19959;-54
2023/07/27 14:23:04;;;;;;;;;;;20.40;90.30;;;;;;4156847;28;19936;-55
2023/07/27 14:25:45;;;;;;;;;;;20.40;90.20;;;;;;4150788;28;19932;-55
2023/07/27 14:28:26;;;;;;;;;;;20.40;90.10;;;;;;4157385;28;20399;-54
2023/07/27 14:31:07;;;;;;;;;;;20.40;90.10;;;;;;4156661;28;19936;-54
2023/07/27 14:33:56;;;;;;;;;;;20.50;90.00;;;;;;4156933;28;19937;-52
2023/07/27 14:36:37;;;;;;;;;;;20.50;90.30;;;;;;4156762;28;20292;-52
2023/07/27 14:39:18;;;;;;;;;;;20.50;90.00;;;;;;4157870;28;20701;-55
2023/07/27 14:41:58;;;;;;;;;;;20.50;90.00;;;;;;4153609;28;20063;-55
2023/07/27 14:44:39;;;;;;;;;;;20.50;89.90;;;;;;4140733;28;19979;-56
2023/07/27 14:47:20;;;;;;;;;;;20.50;89.90;;;;;;4154114;28;19932;-55
2023/07/27 14:50:03;;;;;;;;;;;20.50;89.80;;;;;;4172631;28;19978;-56
2023/07/27 14:52:44;;;;;;;;;;;20.60;90.00;;;;;;4170395;28;19947;-55
2023/07/27 14:55:25;;;;;;;;;;;20.60;89.90;;;;;;4156071;28;19936;-56
2023/07/27 14:58:06;;;;;;;;;;;20.60;89.80;;;;;;4168574;28;19939;-54
2023/07/27 15:00:47;;;;;;;;;;;20.60;90.30;;;;;;4172652;28;19936;-50
2023/07/27 15:03:33;;;;;;;;;;;20.60;89.70;;;;;;4173032;28;19999;-49
2023/07/27 15:06:21;;;;;;;;;;;20.60;90.20;;;;;;4161579;28;19948;-49
2023/07/27 15:09:03;;;;;;;;;;;20.60;89.70;;;;;;4177421;28;20051;-54
2023/07/27 15:11:43;;;;;;;;;;;20.60;89.70;;;;;;4167814;28;20395;-55
2023/07/27 15:14:24;;;;;;;;;;;20.60;89.70;;;;;;4161698;28;20034;-50
2023/07/27 15:17:05;;;;;;;;;;;20.60;89.70;;;;;;4169133;28;20280;-53
2023/07/27 15:19:46;;;;;;;;;;;20.60;90.00;;;;;;4171569;28;19986;-50
2023/07/27 15:22:28;;;;;;;;;;;20.60;90.10;;;;;;4164221;28;19935;-54
2023/07/27 15:25:09;;;;;;;;;;;20.60;90.00;;;;;;4178114;28;19935;-53
2023/07/27 15:27:50;;;;;;;;;;;20.60;90.10;;;;;;4168587;28;19979;-56
2023/07/27 15:30:31;;;;;;;;;;;20.60;90.20;;;;;;4171063;28;20521;-56
2023/07/27 15:33:12;;;;;;;;;;;20.60;90.20;;;;;;4178381;28;19936;-55
2023/07/27 15:35:52;;;;;;;;;;;20.60;90.60;;;;;;4172618;28;20094;-55
2023/07/27 15:38:35;;;;;;;;;;;20.60;90.10;;;;;;4163709;28;19932;-53
2023/07/27 15:41:15;;;;;;;;;;;20.60;90.20;;;;;;4189330;28;19932;-54